This is the latest recevied weather packets stored in our database for station/object HS5SQI-2. If no packets are shown the sender has not sent any weather packets the latest 10 day(s).
| Time | Temp. | Humidity | Pressure | Rain* | Wind** | Luminosity | Snow |
|---|---|---|---|---|---|---|---|
| 1777935853 | 28.89° C | 80% | 1007 hPa | - | - | 0 W/m² | - |
| 1777935231 | 28.89° C | 80% | 1007 hPa | - | - | 0 W/m² | - |
| 1777934609 | 28.89° C | 80% | 1007 hPa | - | - | 0 W/m² | - |
| 1777933987 | 28.89° C | 82% | 1007 hPa | - | - | 0 W/m² | - |
| 1777933365 | 28.33° C | 82% | 1007 hPa | - | - | 0 W/m² | - |
| 1777932743 | 28.89° C | 81% | 1007 hPa | - | - | 0 W/m² | - |
| 1777932121 | 28.89° C | 82% | 1007 hPa | - | - | 0 W/m² | - |
| 1777931499 | 28.89° C | 82% | 1007 hPa | - | - | 0 W/m² | - |
| 1777930877 | 28.89° C | 81% | 1007 hPa | - | - | 0 W/m² | - |
| 1777930255 | 28.33° C | 83% | 1007 hPa | - | - | 0 W/m² | - |
| 1777929633 | 28.89° C | 83% | 1007 hPa | - | - | 0 W/m² | - |
| 1777929011 | 28.89° C | 82% | 1007 hPa | - | - | 0 W/m² | - |
| 1777928389 | 28.33° C | 83% | 1007 hPa | - | - | 0 W/m² | - |
| 1777927767 | 28.89° C | 82% | 1007 hPa | - | - | 0 W/m² | - |
| 1777927145 | 27.78° C | 85% | 1007 hPa | - | - | 0 W/m² | - |
| 1777926523 | 27.78° C | 86% | 1007 hPa | - | - | 0 W/m² | - |
| 1777925901 | 28.89° C | 83% | 1007 hPa | - | - | 0 W/m² | - |
| 1777925279 | 28.33° C | 85% | 1007 hPa | - | - | 0 W/m² | - |
| 1777924657 | 28.33° C | 84% | 1007 hPa | - | - | 0 W/m² | - |
| 1777924035 | 28.33° C | 84% | 1007 hPa | - | - | 0 W/m² | - |
| 1777923413 | 29.44° C | 82% | 1007 hPa | - | - | 0 W/m² | - |
| 1777922790 | 29.44° C | 81% | 1007 hPa | - | - | 0 W/m² | - |
| 1777922169 | 28.89° C | 82% | 1007 hPa | - | - | 0 W/m² | - |
| 1777921546 | 29.44° C | 79% | 1007 hPa | - | - | 0 W/m² | - |
| 1777920924 | 29.44° C | 79% | 1007 hPa | - | - | 0 W/m² | - |
* Rain since midnight (hover to see other rain measurements)
** Current wind speed in m/s (hover to see current wind gust speed)